createdAt,value
2022-09-05T00:01:43.642Z,13.94
2022-09-05T00:04:25.408Z,13.90
2022-09-05T00:07:02.891Z,13.93
2022-09-05T00:09:57.271Z,13.93
2022-09-05T00:12:25.683Z,13.91
2022-09-05T00:15:17.185Z,13.92
2022-09-05T00:20:40.685Z,13.91
2022-09-05T00:24:27.974Z,13.93
2022-09-05T00:24:45.726Z,13.87
2022-09-05T00:26:57.124Z,13.86
2022-09-05T00:30:53.894Z,13.86
2022-09-05T00:32:43.029Z,13.88
2022-09-05T00:35:28.858Z,13.82
2022-09-05T00:37:59.542Z,13.83
2022-09-05T00:40:33.555Z,13.81
2022-09-05T00:43:05.893Z,13.79
2022-09-05T00:45:38.714Z,13.80
2022-09-05T00:48:20.562Z,13.78
2022-09-05T00:51:11.962Z,13.75
2022-09-05T00:53:50.323Z,13.76
2022-09-05T00:56:37.611Z,13.76
2022-09-05T00:59:56.639Z,13.68
2022-09-05T01:02:53.090Z,13.68
2022-09-05T01:05:36.166Z,13.67
2022-09-05T01:08:28.026Z,13.68
2022-09-05T01:11:04.882Z,13.64
2022-09-05T01:13:42.545Z,13.63
2022-09-05T01:16:22.154Z,13.58
2022-09-05T01:19:00.435Z,13.57
2022-09-05T01:21:51.535Z,13.55
2022-09-05T01:24:42.547Z,13.45
2022-09-05T01:28:47.579Z,13.37
2022-09-05T01:30:43.923Z,13.37
2022-09-05T01:33:24.854Z,13.37
2022-09-05T01:36:07.610Z,13.38
2022-09-05T01:39:15.233Z,13.35
2022-09-05T01:41:38.753Z,13.36
2022-09-05T01:44:17.500Z,13.33
2022-09-05T01:46:59.365Z,13.33
2022-09-05T01:49:42.721Z,13.34
2022-09-05T01:52:24.002Z,13.29
2022-09-05T01:55:07.011Z,13.29
2022-09-05T01:57:44.627Z,13.26
2022-09-05T02:00:17.165Z,13.25
2022-09-05T02:03:01.709Z,13.23
2022-09-05T02:05:50.275Z,13.21
2022-09-05T02:08:39.616Z,13.23
2022-09-05T02:11:10.799Z,13.22
2022-09-05T02:13:59.240Z,13.24
2022-09-05T02:16:41.243Z,13.23
2022-09-05T02:19:15.991Z,13.22
2022-09-05T02:21:56.203Z,13.20
2022-09-05T02:24:33.571Z,13.14
2022-09-05T02:27:43.548Z,13.16
2022-09-05T02:30:07.130Z,13.11
2022-09-05T02:32:48.288Z,13.07
2022-09-05T02:35:24.834Z,12.99
2022-09-05T02:38:31.709Z,12.97
2022-09-05T02:45:08.057Z,12.93
2022-09-05T02:45:20.532Z,12.93
2022-09-05T02:46:45.848Z,12.92
2022-09-05T02:50:28.247Z,12.91
2022-09-05T02:57:28.390Z,12.91
2022-09-05T02:57:43.481Z,12.88
2022-09-05T02:58:07.147Z,12.79
2022-09-05T03:00:43.364Z,12.71
2022-09-05T03:03:19.780Z,12.66
2022-09-05T03:05:56.656Z,12.64
2022-09-05T03:08:44.030Z,12.64
2022-09-05T03:11:59.151Z,12.65
2022-09-05T03:15:22.285Z,12.69
2022-09-05T03:18:21.123Z,12.68
2022-09-05T03:21:38.434Z,12.65
2022-09-05T03:25:04.518Z,12.69
2022-09-05T03:28:13.405Z,12.64
2022-09-05T03:30:59.815Z,12.60
2022-09-05T03:34:00.474Z,12.59
2022-09-05T03:36:57.581Z,12.58
2022-09-05T03:40:16.042Z,12.56
2022-09-05T03:43:19.845Z,12.52
2022-09-05T03:46:02.461Z,12.51
2022-09-05T03:49:58.020Z,12.51
2022-09-05T03:57:12.996Z,12.49
2022-09-05T03:57:23.976Z,12.52
2022-09-05T03:58:55.943Z,12.52
2022-09-05T04:04:14.252Z,12.55
2022-09-05T04:08:18.450Z,12.59
2022-09-05T04:08:20.564Z,12.59
2022-09-05T04:10:24.516Z,12.61
2022-09-05T04:12:58.315Z,12.62
2022-09-05T04:15:33.063Z,12.54
2022-09-05T04:18:04.734Z,12.46
2022-09-05T04:20:40.870Z,12.46
2022-09-05T04:23:25.042Z,12.38
2022-09-05T04:26:11.473Z,12.34
2022-09-05T04:28:53.617Z,12.32
2022-09-05T04:31:30.969Z,12.35
2022-09-05T04:34:19.047Z,12.35
2022-09-05T04:36:58.739Z,12.33
2022-09-05T04:39:27.771Z,12.31
2022-09-05T04:42:07.214Z,12.25
2022-09-05T04:44:38.404Z,12.23
2022-09-05T04:47:14.271Z,12.18
2022-09-05T04:49:49.557Z,12.20
2022-09-05T04:52:50.096Z,12.23
2022-09-05T04:55:22.194Z,12.29
2022-09-05T04:57:55.615Z,12.36
2022-09-05T05:06:03.698Z,12.40
2022-09-05T05:06:16.464Z,12.45
2022-09-05T05:06:43.941Z,12.50
2022-09-05T05:09:20.188Z,12.53
2022-09-05T05:18:01.024Z,12.57
2022-09-05T05:18:08.955Z,12.62
2022-09-05T05:18:13.923Z,12.60
2022-09-05T05:20:42.355Z,12.57
2022-09-05T05:23:15.708Z,12.59
2022-09-05T05:25:48.027Z,12.62
2022-09-05T05:28:25.353Z,12.67
2022-09-05T05:30:54.071Z,12.72
2022-09-05T05:33:32.579Z,12.75
2022-09-05T05:36:01.980Z,12.83
2022-09-05T05:38:38.903Z,12.90
2022-09-05T05:41:17.557Z,12.99
2022-09-05T05:43:46.745Z,13.04
2022-09-05T05:46:23.865Z,13.08
2022-09-05T05:48:57.260Z,13.14
2022-09-05T05:52:02.168Z,13.20
2022-09-05T05:54:35.442Z,13.28
2022-09-05T05:57:28.587Z,13.34
2022-09-05T06:00:04.516Z,13.40
2022-09-05T06:03:26.487Z,13.48
2022-09-05T06:06:08.285Z,13.55
2022-09-05T06:14:50.623Z,13.63
2022-09-05T06:14:58.421Z,13.70
2022-09-05T06:15:37.179Z,13.77
2022-09-05T06:18:46.315Z,13.85
2022-09-05T06:22:09.973Z,13.92
2022-09-05T06:25:33.804Z,13.99
2022-09-05T06:28:19.246Z,14.08
2022-09-05T06:31:29.309Z,14.12
2022-09-05T06:33:56.452Z,14.18
2022-09-05T06:36:39.214Z,14.25
2022-09-05T06:39:16.239Z,14.31
2022-09-05T06:41:57.771Z,14.36
2022-09-05T06:45:26.930Z,14.49
2022-09-05T06:47:56.980Z,14.54
2022-09-05T06:50:54.636Z,14.58
2022-09-05T06:53:50.986Z,14.72
2022-09-05T06:56:49.225Z,14.81
2022-09-05T06:59:44.374Z,14.88
2022-09-05T07:02:42.704Z,14.96
2022-09-05T07:05:44.667Z,15.05
2022-09-05T07:08:36.167Z,15.15
2022-09-05T07:11:16.539Z,15.18
2022-09-05T07:14:03.180Z,15.26
2022-09-05T07:16:40.614Z,15.35
2022-09-05T07:19:23.772Z,15.44
2022-09-05T07:22:04.939Z,15.55
2022-09-05T07:24:54.422Z,15.60
2022-09-05T07:27:33.901Z,15.70
2022-09-05T07:30:22.342Z,15.80
2022-09-05T07:32:53.658Z,15.92
2022-09-05T07:35:27.648Z,16.02
2022-09-05T07:38:03.681Z,16.12
2022-09-05T07:40:35.426Z,16.17
2022-09-05T07:43:09.255Z,16.23
2022-09-05T07:45:56.154Z,16.29
2022-09-05T07:48:34.327Z,16.41
2022-09-05T07:54:45.328Z,16.49
2022-09-05T07:57:00.665Z,16.57
2022-09-05T07:57:22.681Z,16.60
2022-09-05T07:59:37.911Z,16.67
2022-09-05T08:02:09.011Z,16.78
2022-09-05T08:04:38.638Z,16.83
2022-09-05T08:07:49.191Z,16.95
2022-09-05T08:10:06.456Z,17.05
2022-09-05T08:13:23.022Z,17.10
2022-09-05T08:16:11.050Z,17.11
2022-09-05T08:18:23.162Z,17.22
2022-09-05T08:20:55.374Z,17.31
2022-09-05T08:23:41.643Z,17.35
2022-09-05T08:26:12.864Z,17.44
2022-09-05T08:28:54.013Z,17.54
2022-09-05T08:31:25.236Z,17.64
2022-09-05T08:33:56.290Z,17.78
2022-09-05T08:36:30.713Z,17.90
2022-09-05T08:39:02.413Z,18.01
2022-09-05T08:41:51.252Z,18.12
2022-09-05T08:46:39.202Z,18.24
2022-09-05T08:47:26.737Z,18.34
2022-09-05T08:50:26.972Z,18.42
2022-09-05T08:53:26.334Z,18.48
2022-09-05T08:56:04.522Z,18.54
2022-09-05T08:58:50.000Z,18.56
2022-09-05T09:02:00.700Z,18.65
2022-09-05T09:05:01.793Z,18.72
2022-09-05T09:07:51.686Z,18.83
2022-09-05T09:10:34.879Z,18.97
2022-09-05T09:13:30.155Z,19.02
2022-09-05T09:16:05.536Z,19.08
2022-09-05T09:19:01.432Z,19.11
2022-09-05T09:21:39.107Z,19.18
2022-09-05T09:24:22.759Z,19.21
2022-09-05T09:26:56.357Z,19.24
2022-09-05T09:29:26.648Z,19.24
2022-09-05T09:32:01.870Z,19.25
2022-09-05T09:34:47.159Z,19.22
2022-09-05T09:37:48.260Z,19.23
2022-09-05T09:40:37.621Z,19.32
2022-09-05T09:43:12.032Z,19.30
2022-09-05T09:45:56.928Z,19.31
2022-09-05T09:48:36.076Z,19.41
2022-09-05T09:51:31.943Z,19.58
2022-09-05T09:54:12.018Z,19.78
2022-09-05T09:57:20.743Z,19.90
2022-09-05T10:00:06.276Z,19.89
2022-09-05T10:08:10.697Z,19.95
2022-09-05T10:10:39.331Z,19.96
2022-09-05T10:10:53.554Z,19.97
2022-09-05T10:15:21.002Z,20.08
2022-09-05T10:18:24.718Z,20.06
2022-09-05T10:21:25.747Z,20.09
2022-09-05T10:24:40.454Z,20.11
2022-09-05T10:27:39.215Z,20.15
2022-09-05T10:30:41.858Z,20.27
2022-09-05T10:35:14.559Z,20.37
2022-09-05T10:36:25.917Z,20.52
2022-09-05T10:39:13.499Z,20.56
2022-09-05T10:41:48.043Z,20.60
2022-09-05T10:44:17.783Z,20.59
2022-09-05T10:46:58.726Z,20.59
2022-09-05T10:49:30.990Z,20.60
2022-09-05T10:52:08.398Z,20.62
2022-09-05T10:55:14.261Z,20.63
2022-09-05T10:57:57.912Z,20.65
2022-09-05T11:02:26.702Z,20.67
2022-09-05T11:03:46.799Z,20.72
2022-09-05T11:06:17.680Z,20.75
2022-09-05T11:09:03.646Z,20.74
2022-09-05T11:11:40.825Z,20.74
2022-09-05T11:14:29.731Z,20.80
2022-09-05T11:17:05.318Z,20.86
2022-09-05T11:19:42.078Z,20.95
2022-09-05T11:22:23.633Z,21.02
2022-09-05T11:24:55.271Z,21.12
2022-09-05T11:27:30.999Z,21.14
2022-09-05T11:30:04.560Z,21.17
2022-09-05T11:39:47.494Z,21.16
2022-09-05T11:39:59.003Z,21.15
2022-09-05T11:40:03.884Z,21.12
2022-09-05T11:42:08.231Z,21.12
2022-09-05T11:44:46.590Z,21.16
2022-09-05T11:47:55.942Z,21.16
2022-09-05T11:50:58.500Z,21.15
2022-09-05T11:53:53.939Z,21.19
2022-09-05T11:56:48.320Z,21.19
2022-09-05T11:59:44.967Z,21.25
2022-09-05T12:05:59.201Z,21.32
2022-09-05T12:08:36.841Z,21.44
2022-09-05T12:11:18.484Z,21.55
2022-09-05T12:13:51.263Z,21.62
2022-09-05T12:16:27.042Z,21.69
2022-09-05T12:19:18.993Z,21.76
2022-09-05T12:22:10.238Z,21.79
2022-09-05T12:25:26.431Z,21.81
2022-09-05T12:27:55.835Z,21.82
2022-09-05T12:31:00.480Z,21.81
2022-09-05T12:36:04.945Z,21.78
2022-09-05T12:39:52.162Z,21.79
2022-09-05T12:41:33.193Z,21.85
2022-09-05T12:42:40.576Z,21.88
2022-09-05T12:45:27.173Z,21.90
2022-09-05T12:48:11.574Z,21.91
2022-09-05T12:50:40.902Z,21.88
2022-09-05T12:53:11.290Z,21.86
2022-09-05T12:55:49.423Z,21.92
2022-09-05T13:02:55.689Z,21.87
2022-09-05T13:03:06.315Z,21.95
2022-09-05T13:04:24.059Z,21.98
2022-09-05T13:07:00.599Z,21.97
2022-09-05T13:09:47.858Z,21.97
2022-09-05T13:14:54.125Z,21.93
2022-09-05T13:15:23.673Z,21.88
2022-09-05T13:17:58.920Z,21.93
2022-09-05T13:20:29.346Z,21.92
2022-09-05T13:22:56.693Z,21.96
2022-09-05T13:25:27.356Z,21.97
2022-09-05T13:28:02.127Z,21.98
2022-09-05T13:34:37.781Z,22.01
2022-09-05T13:37:58.606Z,22.03
2022-09-05T13:38:13.808Z,22.03
2022-09-05T13:39:06.584Z,22.07
2022-09-05T13:41:37.805Z,22.08
2022-09-05T13:44:27.165Z,22.09
2022-09-05T13:47:00.643Z,22.15
2022-09-05T13:49:32.580Z,22.17
2022-09-05T13:52:21.657Z,22.21
2022-09-05T13:54:54.647Z,22.27
2022-09-05T13:57:40.997Z,22.25
2022-09-05T14:00:40.751Z,22.18
2022-09-05T14:03:40.204Z,22.18
2022-09-05T14:06:47.140Z,22.26
2022-09-05T14:09:38.623Z,22.24
2022-09-05T14:12:15.849Z,22.22
2022-09-05T14:17:54.439Z,22.28
2022-09-05T14:20:28.010Z,22.30
2022-09-05T14:23:05.667Z,22.30
2022-09-05T14:25:39.159Z,22.23
2022-09-05T14:28:12.791Z,22.20
2022-09-05T14:33:13.834Z,22.21
2022-09-05T14:37:43.110Z,22.21
2022-09-05T14:37:55.342Z,22.20
2022-09-05T14:40:00.812Z,22.24
2022-09-05T14:43:01.955Z,22.26
2022-09-05T14:45:52.972Z,22.30
2022-09-05T14:48:56.615Z,22.32
2022-09-05T14:51:46.080Z,22.33
2022-09-05T15:02:38.469Z,22.39
2022-09-05T15:02:42.006Z,22.34
2022-09-05T15:03:02.417Z,22.33
2022-09-05T15:05:40.301Z,22.30
2022-09-05T15:09:42.170Z,22.28
2022-09-05T15:12:15.947Z,22.28
2022-09-05T15:13:59.717Z,22.27
2022-09-05T15:16:27.480Z,22.26
2022-09-05T15:18:54.721Z,22.26
2022-09-05T15:21:33.755Z,22.28
2022-09-05T15:24:21.324Z,22.29
2022-09-05T15:26:53.309Z,22.28
2022-09-05T15:29:24.391Z,22.28
2022-09-05T15:31:57.593Z,22.26
2022-09-05T15:34:36.337Z,22.24
2022-09-05T15:37:22.578Z,22.24
2022-09-05T15:40:01.489Z,22.27
2022-09-05T15:42:31.812Z,22.21
2022-09-05T15:45:09.686Z,22.21
2022-09-05T15:47:44.758Z,22.22
2022-09-05T15:50:22.028Z,22.21
2022-09-05T15:52:55.737Z,22.24
2022-09-05T15:55:26.942Z,22.22
2022-09-05T15:57:57.106Z,22.22
2022-09-05T16:00:39.565Z,22.23
2022-09-05T16:04:25.014Z,22.24
2022-09-05T16:10:28.383Z,22.21
2022-09-05T16:10:59.084Z,22.17
2022-09-05T16:14:39.779Z,22.10
2022-09-05T16:23:11.975Z,22.07
2022-09-05T16:23:32.897Z,22.05
2022-09-05T16:23:34.528Z,22.06
2022-09-05T16:26:06.562Z,22.03
2022-09-05T16:28:41.795Z,22.00
2022-09-05T16:31:15.712Z,21.98
2022-09-05T16:33:44.462Z,21.95
2022-09-05T16:36:16.807Z,21.94
2022-09-05T16:38:50.491Z,21.90
2022-09-05T16:41:24.618Z,21.86
2022-09-05T16:43:59.066Z,21.84
2022-09-05T16:46:34.800Z,21.81
2022-09-05T16:49:09.281Z,21.77
2022-09-05T16:51:43.867Z,21.76
2022-09-05T16:54:20.670Z,21.74
2022-09-05T16:56:52.321Z,21.71
2022-09-05T16:59:24.517Z,21.69
2022-09-05T17:02:07.660Z,21.64
2022-09-05T17:05:04.382Z,21.60
2022-09-05T17:07:47.899Z,21.56
2022-09-05T17:10:18.856Z,21.51
2022-09-05T17:12:46.898Z,21.46
2022-09-05T17:15:19.251Z,21.41
2022-09-05T17:18:22.435Z,21.38
2022-09-05T17:20:47.240Z,21.33
2022-09-05T17:27:51.162Z,21.29
2022-09-05T17:29:27.605Z,21.21
2022-09-05T17:29:48.872Z,21.14
2022-09-05T17:31:59.955Z,21.08
2022-09-05T17:34:46.448Z,21.05
2022-09-05T17:37:27.676Z,20.98
2022-09-05T17:40:04.084Z,20.95
2022-09-05T17:42:42.097Z,20.92
2022-09-05T17:45:17.199Z,20.86
2022-09-05T17:47:49.130Z,20.83
2022-09-05T17:50:19.405Z,20.78
2022-09-05T17:53:26.113Z,20.72
2022-09-05T17:56:09.783Z,20.66
2022-09-05T17:58:50.237Z,20.59
2022-09-05T18:01:20.554Z,20.55
2022-09-05T18:04:16.833Z,20.49
2022-09-05T18:06:59.728Z,20.43
2022-09-05T18:09:51.248Z,20.40
2022-09-05T18:13:11.662Z,20.37
2022-09-05T18:15:19.265Z,20.33
2022-09-05T18:18:02.617Z,20.29
2022-09-05T18:20:44.770Z,20.24
2022-09-05T18:23:43.807Z,20.22
2022-09-05T18:26:20.977Z,20.19
2022-09-05T18:28:59.266Z,20.19
2022-09-05T18:31:59.095Z,20.15
2022-09-05T18:34:47.347Z,20.11
2022-09-05T18:37:50.246Z,20.08
2022-09-05T18:41:01.032Z,20.04
2022-09-05T18:43:40.074Z,20.01
2022-09-05T18:46:22.475Z,20.00
2022-09-05T18:50:22.290Z,19.97
2022-09-05T18:51:56.657Z,19.94
2022-09-05T18:54:27.015Z,19.91
2022-09-05T18:57:24.162Z,19.89
2022-09-05T18:59:54.026Z,19.89
2022-09-05T19:02:33.408Z,19.91
2022-09-05T19:05:28.401Z,19.91
2022-09-05T19:08:00.221Z,19.90
2022-09-05T19:10:35.592Z,19.89
2022-09-05T19:13:12.310Z,19.85
2022-09-05T19:15:48.641Z,19.80
2022-09-05T19:18:26.090Z,19.71
2022-09-05T19:21:11.947Z,19.67
2022-09-05T19:23:52.494Z,19.61
2022-09-05T19:26:22.308Z,19.62
2022-09-05T19:36:48.647Z,19.52
2022-09-05T19:36:57.983Z,19.38
2022-09-05T19:37:23.826Z,19.33
2022-09-05T19:37:44.507Z,19.32
2022-09-05T19:46:00.794Z,19.30
2022-09-05T19:47:34.260Z,19.28
2022-09-05T19:47:35.723Z,19.31
2022-09-05T19:49:04.808Z,19.26
2022-09-05T19:51:33.773Z,19.25
2022-09-05T19:54:04.852Z,19.26
2022-09-05T19:56:37.880Z,19.25
2022-09-05T19:59:19.196Z,19.20
2022-09-05T20:01:48.011Z,19.15
2022-09-05T20:04:15.530Z,19.13
2022-09-05T20:06:43.136Z,19.02
2022-09-05T20:09:15.470Z,18.98
2022-09-05T20:11:46.827Z,18.99
2022-09-05T20:14:32.665Z,18.95
2022-09-05T20:17:18.073Z,18.92
2022-09-05T20:19:45.778Z,18.90
2022-09-05T20:22:46.801Z,18.86
2022-09-05T20:25:09.191Z,18.86
2022-09-05T20:27:47.721Z,18.86
2022-09-05T20:30:21.020Z,18.87
2022-09-05T20:32:54.939Z,18.86
2022-09-05T20:40:51.219Z,18.82
2022-09-05T20:43:24.930Z,18.79
2022-09-05T20:43:28.332Z,18.76
2022-09-05T20:44:00.437Z,18.72
2022-09-05T20:53:08.377Z,18.69
2022-09-05T20:54:19.062Z,18.64
2022-09-05T20:54:28.651Z,18.56
2022-09-05T20:55:39.038Z,18.51
2022-09-05T20:58:09.327Z,18.42
2022-09-05T21:00:41.157Z,18.43
2022-09-05T21:03:31.646Z,18.42
2022-09-05T21:06:10.431Z,18.39
2022-09-05T21:08:38.313Z,18.39
2022-09-05T21:11:07.434Z,18.32
2022-09-05T21:13:37.118Z,18.29
2022-09-05T21:16:18.502Z,18.28
2022-09-05T21:18:51.527Z,18.27
2022-09-05T21:21:28.607Z,18.30
2022-09-05T21:24:08.922Z,18.25
2022-09-05T21:26:48.898Z,18.25
2022-09-05T21:29:24.967Z,18.24
2022-09-05T21:32:00.483Z,18.22
2022-09-05T21:34:33.357Z,18.22
2022-09-05T21:37:07.355Z,18.22
2022-09-05T21:39:39.414Z,18.17
2022-09-05T21:42:32.867Z,18.12
2022-09-05T21:47:41.945Z,18.06
2022-09-05T21:47:55.993Z,18.03
2022-09-05T21:50:30.585Z,18.00
2022-09-05T21:53:52.399Z,18.01
2022-09-05T21:59:15.336Z,17.98
2022-09-05T21:59:28.485Z,17.93
2022-09-05T22:01:51.139Z,17.89
2022-09-05T22:04:12.784Z,17.90
2022-09-05T22:06:41.609Z,17.88
2022-09-05T22:09:13.661Z,17.88
2022-09-05T22:11:41.645Z,17.88
2022-09-05T22:14:09.239Z,17.84
2022-09-05T22:16:40.018Z,17.81
2022-09-05T22:19:12.920Z,17.79
2022-09-05T22:21:41.644Z,17.74
2022-09-05T22:24:12.645Z,17.72
2022-09-05T22:27:10.901Z,17.63
2022-09-05T22:29:30.911Z,17.54
2022-09-05T22:31:57.985Z,17.51
2022-09-05T22:34:25.446Z,17.52
2022-09-05T22:36:54.213Z,17.51
2022-09-05T22:39:36.347Z,17.51
2022-09-05T22:42:07.572Z,17.45
2022-09-05T22:44:39.325Z,17.40
2022-09-05T22:47:07.439Z,17.39
2022-09-05T22:49:34.948Z,17.38
2022-09-05T22:52:04.895Z,17.36
2022-09-05T22:54:32.343Z,17.31
2022-09-05T22:56:59.754Z,17.31
2022-09-05T22:59:26.937Z,17.31
2022-09-05T23:01:54.580Z,17.28
2022-09-05T23:04:21.986Z,17.28
2022-09-05T23:06:50.124Z,17.25
2022-09-05T23:09:19.760Z,17.21
2022-09-05T23:11:47.073Z,17.16
2022-09-05T23:14:14.541Z,17.12
2022-09-05T23:16:42.083Z,17.13
2022-09-05T23:19:09.515Z,17.12
2022-09-05T23:21:36.956Z,17.13
2022-09-05T23:24:04.588Z,17.12
2022-09-05T23:26:33.763Z,17.10
2022-09-05T23:29:01.353Z,17.13
2022-09-05T23:31:29.172Z,17.11
2022-09-05T23:33:56.339Z,17.08
2022-09-05T23:36:24.151Z,17.05
2022-09-05T23:38:53.921Z,17.04
2022-09-05T23:41:21.700Z,17.09
2022-09-05T23:43:52.181Z,17.06
2022-09-05T23:46:19.179Z,17.08
2022-09-05T23:48:46.409Z,17.12
2022-09-05T23:51:14.394Z,17.09
2022-09-05T23:53:42.340Z,17.03
2022-09-05T23:56:11.338Z,17.01
2022-09-05T23:58:38.724Z,16.99
